Main page
METAR-TAF:

METAR-TAF

Airports :

Ingolstadt Manching Airport

Ingolstadt, Germany

latitude: 48-43N, longitude: 011-32E, elevation: 367 m

Current weather observation

The report was made 27 minutes ago, at 14:00 UTC
Wind 5 kt from the West/Southwest
Temperature 23°C
Humidity 50%
Pressure 1022 hPa
Visibility 10 km or more
Few clouds at a height of 4500 ft
Broken clouds at a height of 6000 ft

METAR: ETSI 171400Z 25005KT 9999 FEW045 BKN060 23/12 Q1022 BLU FCST CNL

Time: 16:27 (14:27 UTC)

Forecast

The report was made 1 hour and 17 minutes ago, at 13:10 UTC
Forecast valid from 17 at 14 UTC to 17 at 23 UTC
Wind 5 kt from the West/Northwest
Visibility 10 km or more
Few clouds at a height of 4500 ft
Broken clouds at a height of 9000 ft

TAF: ETSI 171310Z 1714/1723 29005KT 9999 NSW FEW045 BKN090

Weather observations and forecasts of more than 4000 airports (METAR and TAF reports).

The available stations are represented by yellow and red dots on the map.

Hover mouse over dot to see the name of the station.

Then click to see weather observations and forecasts.

To change the map : click on the green buttons with a black cross to zoom in, on the green button with a dash to zoom out, or on the green arrows for adjacent maps.


METAR-TAF: